createdAt,value
2018-05-21T00:00:49.097Z,16.85
2018-05-21T00:03:16.624Z,16.89
2018-05-21T00:05:44.167Z,16.88
2018-05-21T00:08:11.714Z,16.95
2018-05-21T00:10:39.395Z,16.99
2018-05-21T00:13:06.923Z,16.82
2018-05-21T00:15:34.489Z,16.89
2018-05-21T00:18:01.983Z,16.86
2018-05-21T00:20:29.575Z,16.80
2018-05-21T00:22:57.173Z,16.75
2018-05-21T00:25:24.664Z,16.82
2018-05-21T00:27:53.154Z,16.97
2018-05-21T00:30:20.678Z,16.91
2018-05-21T00:32:48.197Z,16.86
2018-05-21T00:35:15.784Z,16.90
2018-05-21T00:37:43.342Z,16.76
2018-05-21T00:40:10.885Z,16.74
2018-05-21T00:42:39.496Z,16.80
2018-05-21T00:45:07.099Z,16.69
2018-05-21T00:47:35.182Z,16.58
2018-05-21T00:50:02.731Z,16.78
2018-05-21T00:52:30.496Z,16.66
2018-05-21T00:55:09.991Z,16.54
2018-05-21T00:57:37.662Z,16.51
2018-05-21T01:00:05.248Z,16.55
2018-05-21T01:02:33.029Z,16.46
2018-05-21T01:05:00.564Z,16.39
2018-05-21T01:07:28.106Z,16.49
2018-05-21T01:09:55.640Z,16.50
2018-05-21T01:12:24.114Z,16.46
2018-05-21T01:14:51.676Z,16.32
2018-05-21T01:17:19.409Z,16.38
2018-05-21T01:19:46.962Z,16.25
2018-05-21T01:22:14.559Z,16.09
2018-05-21T01:24:42.112Z,15.96
2018-05-21T01:27:09.667Z,15.85
2018-05-21T01:29:37.237Z,15.77
2018-05-21T01:32:04.788Z,15.65
2018-05-21T01:34:32.302Z,15.59
2018-05-21T01:36:59.886Z,15.59
2018-05-21T01:39:27.426Z,15.53
2018-05-21T01:41:54.949Z,15.48
2018-05-21T01:44:22.479Z,15.49
2018-05-21T01:46:50.016Z,15.52
2018-05-21T01:49:17.545Z,15.49
2018-05-21T01:51:45.101Z,15.41
2018-05-21T01:54:12.677Z,15.40
2018-05-21T01:56:40.229Z,15.43
2018-05-21T01:59:07.784Z,15.43
2018-05-21T02:01:35.336Z,15.37
2018-05-21T02:04:02.881Z,15.30
2018-05-21T02:06:30.438Z,15.24
2018-05-21T02:08:57.996Z,15.21
2018-05-21T02:11:25.511Z,15.10
2018-05-21T02:13:53.135Z,15.09
2018-05-21T02:16:20.659Z,15.01
2018-05-21T02:18:48.212Z,15.00
2018-05-21T02:21:15.812Z,14.96
2018-05-21T02:23:43.308Z,14.71
2018-05-21T02:26:10.841Z,14.71
2018-05-21T02:28:38.376Z,14.62
2018-05-21T02:31:05.915Z,14.61
2018-05-21T02:33:33.500Z,14.59
2018-05-21T02:36:01.071Z,14.57
2018-05-21T02:38:28.620Z,14.59
2018-05-21T02:40:56.639Z,14.57
2018-05-21T02:43:24.197Z,14.44
2018-05-21T02:45:51.730Z,14.51
2018-05-21T02:48:19.243Z,14.46
2018-05-21T02:50:46.789Z,14.45
2018-05-21T02:53:14.420Z,14.40
2018-05-21T02:55:41.986Z,14.33
2018-05-21T02:58:09.550Z,14.40
2018-05-21T03:00:37.071Z,14.39
2018-05-21T03:03:04.600Z,14.36
2018-05-21T03:05:32.175Z,14.35
2018-05-21T03:07:59.732Z,14.33
2018-05-21T03:10:27.228Z,14.30
2018-05-21T03:12:54.828Z,14.27
2018-05-21T03:15:22.375Z,14.29
2018-05-21T03:17:49.925Z,14.29
2018-05-21T03:20:17.513Z,14.27
2018-05-21T03:22:45.069Z,14.35
2018-05-21T03:25:12.641Z,14.37
2018-05-21T03:27:40.675Z,14.37
2018-05-21T03:30:08.222Z,14.37
2018-05-21T03:32:35.793Z,14.35
2018-05-21T03:35:03.329Z,14.36
2018-05-21T03:37:30.879Z,14.34
2018-05-21T03:39:58.458Z,14.33
2018-05-21T03:42:25.990Z,14.34
2018-05-21T03:44:53.630Z,14.32
2018-05-21T03:47:21.257Z,14.27
2018-05-21T03:49:48.875Z,14.33
2018-05-21T03:52:16.427Z,14.30
2018-05-21T03:54:44.034Z,14.25
2018-05-21T03:57:11.644Z,14.21
2018-05-21T03:59:50.905Z,14.30
2018-05-21T04:02:30.315Z,14.27
2018-05-21T04:04:58.668Z,14.32
2018-05-21T04:07:26.204Z,14.27
2018-05-21T04:09:53.774Z,14.31
2018-05-21T04:12:21.336Z,14.31
2018-05-21T04:14:48.858Z,14.35
2018-05-21T04:17:16.448Z,14.39
2018-05-21T04:19:43.996Z,14.44
2018-05-21T04:22:11.503Z,14.42
2018-05-21T04:24:39.061Z,14.58
2018-05-21T04:27:06.602Z,14.64
2018-05-21T04:29:34.202Z,14.68
2018-05-21T04:32:01.862Z,14.82
2018-05-21T04:34:29.405Z,14.93
2018-05-21T04:36:56.987Z,14.82
2018-05-21T04:39:24.550Z,15.04
2018-05-21T04:41:52.081Z,15.07
2018-05-21T04:44:19.689Z,15.24
2018-05-21T04:46:47.218Z,15.30
2018-05-21T04:49:14.820Z,15.45
2018-05-21T04:51:42.370Z,15.44
2018-05-21T04:54:09.893Z,15.48
2018-05-21T04:56:37.416Z,15.57
2018-05-21T04:59:05.003Z,15.61
2018-05-21T05:01:32.577Z,15.66
2018-05-21T05:04:00.140Z,15.89
2018-05-21T05:06:27.683Z,16.03
2018-05-21T05:08:55.249Z,16.28
2018-05-21T05:11:22.781Z,16.40
2018-05-21T05:13:50.315Z,16.51
2018-05-21T05:16:17.859Z,16.62
2018-05-21T05:18:45.505Z,16.87
2018-05-21T05:21:13.126Z,16.95
2018-05-21T05:23:41.224Z,17.07
2018-05-21T05:26:08.762Z,17.19
2018-05-21T05:28:36.365Z,17.43
2018-05-21T05:31:03.995Z,17.47
2018-05-21T05:33:31.515Z,17.75
2018-05-21T05:35:59.123Z,17.82
2018-05-21T05:38:26.639Z,17.82
2018-05-21T05:40:54.222Z,17.86
2018-05-21T05:43:22.040Z,18.11
2018-05-21T05:45:49.563Z,18.07
2018-05-21T05:48:17.097Z,17.45
2018-05-21T05:50:44.656Z,17.97
2018-05-21T05:53:12.225Z,18.32
2018-05-21T05:55:39.777Z,18.22
2018-05-21T05:58:07.402Z,18.41
2018-05-21T06:00:34.973Z,18.52
2018-05-21T06:03:02.523Z,18.60
2018-05-21T06:05:30.061Z,18.77
2018-05-21T06:07:57.599Z,18.10
2018-05-21T06:10:25.128Z,18.44
2018-05-21T06:12:52.714Z,18.80
2018-05-21T06:15:20.286Z,18.86
2018-05-21T06:17:47.855Z,18.72
2018-05-21T06:20:15.454Z,18.81
2018-05-21T06:22:43.080Z,18.91
2018-05-21T06:25:10.679Z,19.20
2018-05-21T06:27:38.351Z,19.19
2018-05-21T06:30:06.296Z,19.75
2018-05-21T06:32:33.880Z,20.11
2018-05-21T06:35:01.471Z,19.96
2018-05-21T06:37:29.012Z,19.86
2018-05-21T06:39:56.554Z,20.68
2018-05-21T06:42:24.126Z,20.46
2018-05-21T06:44:51.659Z,20.65
2018-05-21T06:47:19.286Z,20.46
2018-05-21T06:49:46.830Z,20.48
2018-05-21T06:52:14.389Z,20.41
2018-05-21T06:54:41.964Z,20.52
2018-05-21T06:57:09.495Z,20.42
2018-05-21T06:59:37.053Z,20.42
2018-05-21T07:02:04.595Z,21.00
2018-05-21T07:04:32.226Z,20.37
2018-05-21T07:06:59.861Z,20.46
2018-05-21T07:09:27.551Z,20.85
2018-05-21T07:11:55.411Z,20.92
2018-05-21T07:14:23.007Z,21.13
2018-05-21T07:16:50.722Z,21.44
2018-05-21T07:19:18.471Z,21.67
2018-05-21T07:21:46.153Z,22.17
2018-05-21T07:24:13.788Z,21.92
2018-05-21T07:26:41.602Z,21.44
2018-05-21T07:29:09.218Z,21.38
2018-05-21T07:31:36.882Z,21.68
2018-05-21T07:34:04.500Z,22.10
2018-05-21T07:36:32.025Z,22.61
2018-05-21T07:38:59.649Z,22.60
2018-05-21T07:41:27.303Z,22.82
2018-05-21T07:43:54.846Z,22.93
2018-05-21T07:46:22.385Z,22.67
2018-05-21T07:48:50.031Z,23.22
2018-05-21T07:51:17.758Z,23.48
2018-05-21T07:53:46.399Z,23.20
2018-05-21T07:56:13.956Z,23.35
2018-05-21T07:58:42.574Z,23.23
2018-05-21T08:01:10.153Z,23.08
2018-05-21T08:03:37.854Z,23.71
2018-05-21T08:06:05.518Z,23.37
2018-05-21T08:08:33.097Z,23.05
2018-05-21T08:11:00.717Z,22.98
2018-05-21T08:13:28.389Z,22.99
2018-05-21T08:15:55.983Z,23.34
2018-05-21T08:18:23.597Z,23.45
2018-05-21T08:20:51.188Z,23.53
2018-05-21T08:23:18.727Z,23.51
2018-05-21T08:25:46.310Z,23.60
2018-05-21T08:28:13.899Z,23.44
2018-05-21T08:30:41.451Z,23.48
2018-05-21T08:33:08.969Z,23.50
2018-05-21T08:35:36.603Z,23.68
2018-05-21T08:38:04.203Z,23.72
2018-05-21T08:40:31.757Z,23.99
2018-05-21T08:42:59.612Z,23.98
2018-05-21T08:45:27.214Z,24.34
2018-05-21T08:47:54.857Z,24.43
2018-05-21T08:50:22.463Z,24.56
2018-05-21T08:52:50.073Z,24.84
2018-05-21T08:55:17.729Z,24.97
2018-05-21T08:57:45.302Z,25.23
2018-05-21T09:00:12.812Z,24.90
2018-05-21T09:02:40.372Z,25.47
2018-05-21T09:05:07.934Z,25.04
2018-05-21T09:07:35.469Z,24.72
2018-05-21T09:10:03.015Z,24.86
2018-05-21T09:12:30.692Z,24.48
2018-05-21T09:14:58.224Z,24.59
2018-05-21T09:17:25.771Z,24.49
2018-05-21T09:19:53.311Z,24.50
2018-05-21T09:22:20.858Z,24.39
2018-05-21T09:24:48.419Z,25.15
2018-05-21T09:27:15.987Z,24.80
2018-05-21T09:29:43.578Z,24.75
2018-05-21T09:32:11.163Z,24.88
2018-05-21T09:34:38.724Z,25.16
2018-05-21T09:37:06.274Z,24.86
2018-05-21T09:39:33.864Z,24.80
2018-05-21T09:42:01.506Z,25.15
2018-05-21T09:44:28.991Z,24.98
2018-05-21T09:46:56.602Z,25.14
2018-05-21T09:49:24.199Z,25.12
2018-05-21T09:51:51.763Z,25.50
2018-05-21T09:54:19.298Z,25.41
2018-05-21T09:56:46.887Z,24.32
2018-05-21T09:59:14.453Z,25.43
2018-05-21T10:01:42.020Z,25.51
2018-05-21T10:04:10.080Z,25.85
2018-05-21T10:06:37.705Z,25.81
2018-05-21T10:09:06.320Z,25.87
2018-05-21T10:11:33.871Z,26.19
2018-05-21T10:14:01.449Z,26.12
2018-05-21T10:16:29.011Z,26.00
2018-05-21T10:18:56.556Z,26.47
2018-05-21T10:21:24.109Z,26.46
2018-05-21T10:23:51.682Z,26.34
2018-05-21T10:26:19.220Z,26.33
2018-05-21T10:28:46.764Z,26.18
2018-05-21T10:31:14.354Z,26.47
2018-05-21T10:33:42.251Z,26.70
2018-05-21T10:36:09.850Z,26.61
2018-05-21T10:38:37.480Z,26.88
2018-05-21T10:41:05.329Z,26.53
2018-05-21T10:43:32.926Z,26.19
2018-05-21T10:46:00.471Z,26.55
2018-05-21T10:48:28.019Z,26.51
2018-05-21T10:50:55.608Z,26.67
2018-05-21T10:53:23.467Z,26.56
2018-05-21T10:55:51.044Z,26.97
2018-05-21T10:58:18.603Z,26.70
2018-05-21T11:00:46.158Z,27.00
2018-05-21T11:03:13.753Z,26.72
2018-05-21T11:05:41.324Z,26.70
2018-05-21T11:08:09.097Z,26.85
2018-05-21T11:10:36.641Z,27.31
2018-05-21T11:13:04.182Z,27.70
2018-05-21T11:15:32.049Z,27.79
2018-05-21T11:17:59.716Z,27.64
2018-05-21T11:20:27.241Z,27.29
2018-05-21T11:22:54.782Z,27.55
2018-05-21T11:25:22.384Z,28.26
2018-05-21T11:27:49.944Z,28.23
2018-05-21T11:30:17.508Z,28.81
2018-05-21T11:32:45.091Z,28.99
2018-05-21T11:35:12.665Z,29.47
2018-05-21T11:37:40.226Z,29.09
2018-05-21T11:40:07.808Z,29.35
2018-05-21T11:42:35.368Z,29.50
2018-05-21T11:45:02.933Z,29.45
2018-05-21T11:47:30.478Z,30.39
2018-05-21T11:49:58.064Z,31.49
2018-05-21T11:52:25.591Z,32.33
2018-05-21T11:54:53.140Z,33.34
2018-05-21T11:57:20.728Z,34.24
2018-05-21T11:59:48.294Z,35.24
2018-05-21T12:02:15.907Z,36.84
2018-05-21T12:04:43.485Z,37.22
2018-05-21T12:07:11.225Z,37.02
2018-05-21T12:09:38.972Z,38.29
2018-05-21T12:12:06.540Z,37.80
2018-05-21T12:14:34.065Z,38.46
2018-05-21T12:17:01.692Z,39.54
2018-05-21T12:19:29.227Z,40.20
2018-05-21T12:21:56.765Z,40.37
2018-05-21T12:24:24.375Z,40.64
2018-05-21T12:26:51.976Z,40.47
2018-05-21T12:29:19.501Z,40.76
2018-05-21T12:31:47.115Z,41.21
2018-05-21T12:34:14.700Z,41.87
2018-05-21T12:36:42.273Z,41.74
2018-05-21T12:39:09.846Z,41.26
2018-05-21T12:41:37.452Z,42.78
2018-05-21T12:44:05.008Z,42.92
2018-05-21T12:46:32.835Z,43.99
2018-05-21T12:49:00.399Z,44.41
2018-05-21T12:51:28.033Z,43.19
2018-05-21T12:53:55.600Z,41.39
2018-05-21T12:56:23.153Z,42.04
2018-05-21T12:58:50.720Z,43.18
2018-05-21T13:01:18.288Z,43.32
2018-05-21T13:03:45.847Z,43.30
2018-05-21T13:06:13.381Z,43.68
2018-05-21T13:08:40.911Z,44.64
2018-05-21T13:11:08.574Z,44.95
2018-05-21T13:13:36.136Z,45.07
2018-05-21T13:16:03.662Z,46.47
2018-05-21T13:18:31.243Z,46.74
2018-05-21T13:20:59.389Z,46.68
2018-05-21T13:23:27.077Z,45.61
2018-05-21T13:25:54.625Z,46.83
2018-05-21T13:28:22.192Z,45.06
2018-05-21T13:30:49.775Z,44.34
2018-05-21T13:33:17.318Z,43.91
2018-05-21T13:35:44.850Z,42.78
2018-05-21T13:38:12.815Z,42.10
2018-05-21T13:40:40.397Z,42.23
2018-05-21T13:43:08.054Z,42.65
2018-05-21T13:45:35.553Z,43.31
2018-05-21T13:48:03.090Z,43.75
2018-05-21T13:50:30.651Z,42.09
2018-05-21T13:52:58.157Z,41.10
2018-05-21T13:55:25.761Z,42.31
2018-05-21T13:57:53.293Z,43.98
2018-05-21T14:00:20.882Z,45.64
2018-05-21T14:02:48.497Z,45.76
2018-05-21T14:05:16.056Z,45.02
2018-05-21T14:07:43.672Z,45.98
2018-05-21T14:10:11.222Z,46.94
2018-05-21T14:12:38.837Z,46.88
2018-05-21T14:15:06.348Z,45.67
2018-05-21T14:17:33.992Z,45.92
2018-05-21T14:20:01.556Z,48.25
2018-05-21T14:22:29.138Z,46.64
2018-05-21T14:24:56.675Z,46.98
2018-05-21T14:27:24.237Z,45.91
2018-05-21T14:29:51.909Z,46.20
2018-05-21T14:32:19.472Z,46.11
2018-05-21T14:34:47.004Z,42.87
2018-05-21T14:37:14.576Z,40.48
2018-05-21T14:39:42.153Z,40.40
2018-05-21T14:42:09.782Z,39.62
2018-05-21T14:44:37.392Z,38.77
2018-05-21T14:47:04.921Z,36.97
2018-05-21T14:49:32.460Z,40.03
2018-05-21T14:52:00.087Z,40.74
2018-05-21T14:54:27.670Z,40.77
2018-05-21T14:56:55.318Z,42.51
2018-05-21T14:59:22.964Z,42.57
2018-05-21T15:01:50.541Z,43.91
2018-05-21T15:04:18.103Z,42.06
2018-05-21T15:06:45.657Z,43.40
2018-05-21T15:09:13.230Z,41.58
2018-05-21T15:11:40.960Z,39.55
2018-05-21T15:14:08.522Z,38.14
2018-05-21T15:16:36.069Z,40.00
2018-05-21T15:19:03.611Z,40.31
2018-05-21T15:21:31.142Z,40.43
2018-05-21T15:23:58.709Z,41.72
2018-05-21T15:26:26.281Z,42.56
2018-05-21T15:28:53.841Z,42.11
2018-05-21T15:31:21.504Z,40.79
2018-05-21T15:33:49.321Z,39.98
2018-05-21T15:36:16.851Z,37.71
2018-05-21T15:38:44.476Z,36.04
2018-05-21T15:41:12.079Z,33.86
2018-05-21T15:43:39.636Z,33.02
2018-05-21T15:46:07.183Z,31.62
2018-05-21T15:51:30.760Z,29.31
2018-05-21T15:53:58.470Z,29.07
2018-05-21T15:56:26.322Z,29.14
2018-05-21T15:58:53.879Z,28.69
2018-05-21T16:01:21.447Z,28.61
2018-05-21T16:03:48.990Z,28.67
2018-05-21T16:06:16.549Z,28.64
2018-05-21T16:08:44.150Z,28.33
2018-05-21T16:11:11.718Z,28.68
2018-05-21T16:13:39.370Z,28.87
2018-05-21T16:16:06.893Z,29.38
2018-05-21T16:18:34.453Z,30.08
2018-05-21T16:21:02.121Z,30.77
2018-05-21T16:23:29.658Z,31.39
2018-05-21T16:25:57.238Z,30.40
2018-05-21T16:28:24.800Z,30.12
2018-05-21T16:30:52.381Z,29.85
2018-05-21T16:33:19.948Z,30.15
2018-05-21T16:35:47.690Z,30.25
2018-05-21T16:38:15.271Z,29.90
2018-05-21T16:40:42.842Z,29.92
2018-05-21T16:43:10.420Z,29.99
2018-05-21T16:45:38.051Z,29.61
2018-05-21T16:48:05.610Z,30.03
2018-05-21T16:50:33.172Z,30.05
2018-05-21T16:53:00.721Z,29.92
2018-05-21T16:55:28.319Z,30.34
2018-05-21T16:57:55.998Z,31.44
2018-05-21T17:00:23.642Z,32.57
2018-05-21T17:02:51.140Z,33.14
2018-05-21T17:05:18.708Z,33.14
2018-05-21T17:07:46.289Z,33.74
2018-05-21T17:10:13.854Z,34.20
2018-05-21T17:12:41.390Z,34.06
2018-05-21T17:15:08.953Z,34.73
2018-05-21T17:17:36.584Z,36.30
2018-05-21T17:20:04.197Z,34.95
2018-05-21T17:22:31.766Z,35.31
2018-05-21T17:24:59.323Z,34.80
2018-05-21T17:27:26.948Z,35.40
2018-05-21T17:29:54.494Z,35.21
2018-05-21T17:32:22.141Z,35.39
2018-05-21T17:34:49.823Z,36.89
2018-05-21T17:37:17.445Z,36.18
2018-05-21T17:39:44.998Z,36.19
2018-05-21T17:42:12.573Z,35.28
2018-05-21T17:44:40.142Z,34.87
2018-05-21T17:47:12.105Z,34.54
2018-05-21T17:49:39.731Z,34.45
2018-05-21T17:52:07.277Z,34.77
2018-05-21T17:54:34.897Z,34.39
2018-05-21T17:57:02.470Z,33.00
2018-05-21T17:59:30.017Z,31.41
2018-05-21T18:01:57.563Z,30.18
2018-05-21T18:04:25.132Z,29.36
2018-05-21T18:06:52.661Z,28.32
2018-05-21T18:09:20.247Z,27.85
2018-05-21T18:11:47.808Z,27.21
2018-05-21T18:14:15.367Z,27.07
2018-05-21T18:16:42.945Z,26.81
2018-05-21T18:19:10.504Z,26.54
2018-05-21T18:21:38.067Z,26.40
2018-05-21T18:24:07.711Z,26.18
2018-05-21T18:26:35.293Z,26.12
2018-05-21T18:29:03.006Z,26.21
2018-05-21T18:31:30.630Z,25.89
2018-05-21T18:33:58.173Z,25.70
2018-05-21T18:36:25.765Z,25.50
2018-05-21T18:38:53.343Z,25.50
2018-05-21T18:41:20.947Z,25.41
2018-05-21T18:43:48.517Z,25.34
2018-05-21T18:46:16.096Z,25.01
2018-05-21T18:48:43.729Z,24.80
2018-05-21T18:51:11.326Z,24.60
2018-05-21T18:53:38.916Z,24.37
2018-05-21T18:56:06.487Z,23.86
2018-05-21T18:58:34.191Z,23.71
2018-05-21T19:01:01.794Z,23.31
2018-05-21T19:03:29.399Z,22.86
2018-05-21T19:05:56.996Z,23.13
2018-05-21T19:08:24.587Z,23.01
2018-05-21T19:10:52.149Z,22.73
2018-05-21T19:13:19.720Z,22.29
2018-05-21T19:15:47.257Z,22.32
2018-05-21T19:18:14.797Z,22.68
2018-05-21T19:20:42.484Z,22.70
2018-05-21T19:23:10.025Z,22.73
2018-05-21T19:25:37.585Z,21.99
2018-05-21T19:28:05.156Z,21.78
2018-05-21T19:30:32.828Z,21.72
2018-05-21T19:33:00.428Z,21.49
2018-05-21T19:35:29.629Z,21.05
2018-05-21T19:37:57.249Z,21.09
2018-05-21T19:40:24.915Z,20.94
2018-05-21T19:42:52.511Z,21.01
2018-05-21T19:45:20.100Z,20.71
2018-05-21T19:47:47.700Z,20.80
2018-05-21T19:50:15.248Z,20.63
2018-05-21T19:52:42.840Z,20.21
2018-05-21T19:55:10.513Z,20.28
2018-05-21T19:57:38.175Z,20.22
2018-05-21T20:00:05.725Z,20.24
2018-05-21T20:02:33.305Z,20.27
2018-05-21T20:05:00.889Z,20.18
2018-05-21T20:07:28.539Z,19.91
2018-05-21T20:09:56.034Z,19.86
2018-05-21T20:12:23.779Z,19.84
2018-05-21T20:14:51.350Z,19.94
2018-05-21T20:17:18.958Z,19.88
2018-05-21T20:19:46.501Z,19.90
2018-05-21T20:22:14.054Z,19.76
2018-05-21T20:24:41.693Z,19.93
2018-05-21T20:27:09.317Z,19.92
2018-05-21T20:29:36.985Z,20.05
2018-05-21T20:32:04.610Z,20.06
2018-05-21T20:34:32.226Z,20.18
2018-05-21T20:36:59.848Z,20.11
2018-05-21T20:39:27.416Z,20.00
2018-05-21T20:41:54.965Z,20.17
2018-05-21T20:44:22.642Z,20.01
2018-05-21T20:46:51.190Z,19.88
2018-05-21T20:49:20.372Z,19.78
2018-05-21T20:51:48.875Z,19.45
2018-05-21T20:54:16.961Z,19.46
2018-05-21T20:56:44.609Z,19.56
2018-05-21T20:59:12.159Z,19.39
2018-05-21T21:01:39.837Z,19.34
2018-05-21T21:04:07.475Z,19.48
2018-05-21T21:06:35.158Z,19.50
2018-05-21T21:09:02.823Z,19.67
2018-05-21T21:11:30.455Z,20.24
2018-05-21T21:13:58.031Z,20.92
2018-05-21T21:16:25.707Z,21.45
2018-05-21T21:18:53.373Z,21.63
2018-05-21T21:21:20.967Z,21.48
2018-05-21T21:23:48.528Z,20.93
2018-05-21T21:26:16.183Z,20.98
2018-05-21T21:28:43.876Z,21.32
2018-05-21T21:31:11.467Z,21.35
2018-05-21T21:33:39.144Z,21.69
2018-05-21T21:36:06.845Z,21.58
2018-05-21T21:38:34.475Z,21.57
2018-05-21T21:41:02.160Z,21.66
2018-05-21T21:43:29.792Z,21.51
2018-05-21T21:45:57.422Z,21.68
2018-05-21T21:48:25.041Z,21.72
2018-05-21T21:50:52.743Z,21.73
2018-05-21T21:53:20.377Z,21.47
2018-05-21T21:55:48.038Z,21.05
2018-05-21T21:58:15.614Z,20.82
2018-05-21T22:00:43.350Z,20.72
2018-05-21T22:03:10.962Z,21.35
2018-05-21T22:05:38.573Z,21.58
2018-05-21T22:08:06.158Z,21.20
2018-05-21T22:10:33.713Z,21.37
2018-05-21T22:13:01.351Z,21.68
2018-05-21T22:15:28.901Z,21.37
2018-05-21T22:17:56.525Z,21.13
2018-05-21T22:20:24.185Z,20.76
2018-05-21T22:22:51.794Z,21.25
2018-05-21T22:25:19.361Z,21.51
2018-05-21T22:27:47.026Z,21.42
2018-05-21T22:30:14.615Z,21.46
2018-05-21T22:32:42.216Z,21.54
2018-05-21T22:35:09.810Z,21.37
2018-05-21T22:37:37.435Z,20.99
2018-05-21T22:40:05.004Z,21.37
2018-05-21T22:42:32.729Z,21.23
2018-05-21T22:45:00.397Z,21.58
2018-05-21T22:47:27.941Z,21.14
2018-05-21T22:49:55.501Z,21.41
2018-05-21T22:52:23.064Z,21.39
2018-05-21T22:54:50.598Z,21.52
2018-05-21T22:57:18.226Z,21.61
2018-05-21T22:59:45.814Z,21.53
2018-05-21T23:02:13.485Z,21.27
2018-05-21T23:04:41.078Z,21.39
2018-05-21T23:07:08.661Z,21.62
2018-05-21T23:09:36.235Z,21.24
2018-05-21T23:12:03.815Z,20.43
2018-05-21T23:14:31.520Z,20.40
2018-05-21T23:16:58.997Z,20.32
2018-05-21T23:19:26.632Z,20.51
2018-05-21T23:21:54.184Z,20.44
2018-05-21T23:24:21.774Z,20.50
2018-05-21T23:26:49.351Z,20.38
2018-05-21T23:29:16.911Z,20.36
2018-05-21T23:31:44.461Z,19.90
2018-05-21T23:34:12.016Z,19.76
2018-05-21T23:36:39.548Z,19.37
2018-05-21T23:39:07.131Z,19.27
2018-05-21T23:41:34.765Z,19.47
2018-05-21T23:44:02.302Z,19.94
2018-05-21T23:46:29.835Z,20.10
2018-05-21T23:48:57.369Z,20.34
2018-05-21T23:51:24.929Z,20.15
2018-05-21T23:53:52.489Z,20.04
2018-05-21T23:56:20.072Z,19.42
2018-05-21T23:58:47.676Z,19.07
